createdAt,value
2018-07-28T00:00:12.179Z,6.03
2018-07-28T00:02:40.514Z,5.53
2018-07-28T00:05:09.181Z,6.00
2018-07-28T00:07:37.525Z,5.83
2018-07-28T00:10:09.690Z,5.90
2018-07-28T00:12:38.023Z,5.43
2018-07-28T00:15:07.606Z,5.33
2018-07-28T00:17:35.915Z,5.63
2018-07-28T00:20:04.468Z,5.80
2018-07-28T00:22:32.874Z,5.87
2018-07-28T00:25:00.956Z,5.43
2018-07-28T00:27:29.029Z,5.23
2018-07-28T00:29:57.355Z,5.73
2018-07-28T00:32:25.660Z,5.90
2018-07-28T00:34:53.697Z,5.63
2018-07-28T00:37:22.010Z,5.97
2018-07-28T00:39:50.312Z,5.20
2018-07-28T00:42:18.626Z,5.60
2018-07-28T00:44:46.940Z,5.80
2018-07-28T00:47:15.358Z,5.47
2018-07-28T00:49:43.657Z,5.50
2018-07-28T00:52:11.956Z,5.60
2018-07-28T00:54:40.276Z,5.47
2018-07-28T00:57:08.588Z,6.03
2018-07-28T00:59:36.867Z,5.77
2018-07-28T01:02:05.182Z,5.70
2018-07-28T01:04:33.458Z,6.10
2018-07-28T01:07:01.757Z,5.70
2018-07-28T01:09:30.149Z,5.47
2018-07-28T01:11:58.419Z,5.57
2018-07-28T01:14:26.747Z,5.97
2018-07-28T01:16:55.045Z,5.80
2018-07-28T01:19:23.383Z,5.43
2018-07-28T01:21:51.680Z,5.43
2018-07-28T01:24:19.997Z,5.50
2018-07-28T01:26:48.302Z,5.53
2018-07-28T01:29:16.643Z,5.60
2018-07-28T01:31:45.612Z,5.60
2018-07-28T01:34:13.918Z,5.80
2018-07-28T01:36:42.197Z,5.60
2018-07-28T01:39:12.775Z,5.50
2018-07-28T01:41:41.643Z,5.97
2018-07-28T01:44:10.364Z,5.93
2018-07-28T01:46:38.781Z,4.93
2018-07-28T01:49:07.316Z,5.80
2018-07-28T01:51:36.295Z,5.70
2018-07-28T01:54:04.659Z,5.97
2018-07-28T01:56:32.981Z,5.60
2018-07-28T01:59:01.303Z,5.40
2018-07-28T02:01:29.984Z,5.97
2018-07-28T02:03:58.501Z,5.77
2018-07-28T02:06:26.790Z,6.50
2018-07-28T02:08:55.244Z,6.23
2018-07-28T02:11:23.718Z,6.23
2018-07-28T02:13:52.016Z,7.00
2018-07-28T02:16:20.308Z,6.37
2018-07-28T02:18:48.633Z,6.73
2018-07-28T02:21:16.993Z,6.70
2018-07-28T02:23:45.315Z,6.73
2018-07-28T02:26:13.590Z,6.93
2018-07-28T02:28:41.901Z,6.87
2018-07-28T02:31:10.181Z,6.60
2018-07-28T02:33:38.235Z,6.57
2018-07-28T02:36:06.795Z,6.90
2018-07-28T02:38:35.116Z,6.87
2018-07-28T02:41:03.429Z,7.00
2018-07-28T02:43:31.754Z,7.30
2018-07-28T02:46:00.040Z,6.70
2018-07-28T02:48:28.362Z,6.67
2018-07-28T02:50:56.734Z,6.50
2018-07-28T02:53:25.105Z,7.07
2018-07-28T02:55:53.409Z,6.97
2018-07-28T02:58:21.716Z,7.37
2018-07-28T03:00:49.991Z,7.33
2018-07-28T03:03:18.318Z,7.37
2018-07-28T03:05:46.639Z,6.63
2018-07-28T03:08:15.006Z,6.50
2018-07-28T03:10:43.311Z,6.97
2018-07-28T03:13:11.619Z,6.87
2018-07-28T03:15:39.906Z,7.23
2018-07-28T03:18:08.925Z,7.47
2018-07-28T03:20:37.238Z,6.53
2018-07-28T03:23:05.913Z,6.97
2018-07-28T03:25:34.187Z,7.17
2018-07-28T03:28:02.488Z,7.77
2018-07-28T03:30:30.829Z,6.60
2018-07-28T03:32:59.123Z,6.40
2018-07-28T03:35:27.440Z,6.40
2018-07-28T03:37:55.713Z,6.80
2018-07-28T03:40:24.019Z,6.87
2018-07-28T03:42:52.313Z,7.27
2018-07-28T03:45:20.620Z,6.80
2018-07-28T03:47:48.951Z,6.53
2018-07-28T03:50:17.264Z,6.87
2018-07-28T03:52:45.578Z,6.63
2018-07-28T03:55:13.880Z,6.53
2018-07-28T03:57:42.166Z,6.40
2018-07-28T04:00:12.070Z,6.67
2018-07-28T04:02:40.341Z,6.40
2018-07-28T04:05:10.274Z,6.73
2018-07-28T04:07:38.719Z,6.90
2018-07-28T04:10:07.621Z,6.93
2018-07-28T04:12:36.115Z,7.30
2018-07-28T04:15:06.751Z,7.23
2018-07-28T04:17:39.258Z,6.67
2018-07-28T04:20:07.566Z,6.60
2018-07-28T04:22:35.878Z,7.00
2018-07-28T04:25:04.222Z,6.97
2018-07-28T04:27:32.533Z,6.77
2018-07-28T04:30:00.858Z,6.53
2018-07-28T04:32:29.167Z,7.27
2018-07-28T04:34:57.462Z,6.63
2018-07-28T04:37:25.764Z,6.43
2018-07-28T04:39:54.082Z,6.80
2018-07-28T04:42:22.388Z,7.03
2018-07-28T04:44:50.697Z,6.80
2018-07-28T04:47:18.973Z,6.80
2018-07-28T04:49:47.267Z,7.27
2018-07-28T04:52:15.535Z,7.50
2018-07-28T04:54:44.067Z,7.30
2018-07-28T04:57:12.632Z,7.03
2018-07-28T04:59:41.244Z,7.50
2018-07-28T05:02:09.600Z,7.30
2018-07-28T05:04:37.894Z,7.30
2018-07-28T05:07:06.257Z,7.10
2018-07-28T05:09:34.573Z,6.70
2018-07-28T05:12:02.937Z,6.73
2018-07-28T05:14:31.261Z,7.50
2018-07-28T05:16:59.581Z,7.47
2018-07-28T05:19:27.962Z,7.03
2018-07-28T05:21:56.433Z,7.13
2018-07-28T05:24:24.760Z,7.47
2018-07-28T05:26:53.092Z,7.80
2018-07-28T05:29:21.519Z,7.33
2018-07-28T05:31:49.859Z,7.13
2018-07-28T05:34:18.175Z,7.20
2018-07-28T05:36:46.451Z,7.33
2018-07-28T05:39:14.755Z,6.47
2018-07-28T05:41:43.036Z,6.87
2018-07-28T05:44:11.333Z,7.07
2018-07-28T05:46:39.634Z,6.90
2018-07-28T05:49:08.003Z,7.43
2018-07-28T05:51:36.312Z,6.90
2018-07-28T05:54:04.600Z,6.73
2018-07-28T05:56:32.936Z,7.03
2018-07-28T05:59:01.252Z,7.63
2018-07-28T06:01:29.274Z,6.60
2018-07-28T06:03:57.563Z,6.60
2018-07-28T06:06:25.896Z,6.33
2018-07-28T06:08:54.188Z,7.03
2018-07-28T06:11:22.499Z,6.43
2018-07-28T06:13:50.777Z,6.63
2018-07-28T06:16:19.091Z,6.70
2018-07-28T06:18:47.409Z,6.77
2018-07-28T06:21:15.694Z,6.80
2018-07-28T06:23:43.996Z,6.90
2018-07-28T06:26:12.301Z,7.00
2018-07-28T06:28:40.635Z,9.23
2018-07-28T06:31:08.948Z,8.27
2018-07-28T06:33:37.385Z,6.27
2018-07-28T06:36:05.679Z,6.43
2018-07-28T06:38:33.956Z,6.50
2018-07-28T06:41:02.248Z,5.67
2018-07-28T06:43:30.531Z,7.03
2018-07-28T06:45:58.853Z,6.30
2018-07-28T06:48:27.152Z,6.33
2018-07-28T06:50:55.485Z,6.27
2018-07-28T06:53:23.827Z,6.13
2018-07-28T06:55:52.181Z,6.90
2018-07-28T06:58:20.742Z,6.63
2018-07-28T07:00:49.085Z,6.77
2018-07-28T07:03:17.367Z,6.93
2018-07-28T07:05:45.811Z,7.10
2018-07-28T07:08:13.903Z,6.83
2018-07-28T07:10:41.966Z,6.97
2018-07-28T07:13:09.979Z,7.03
2018-07-28T07:15:38.296Z,6.93
2018-07-28T07:18:06.584Z,6.90
2018-07-28T07:20:34.637Z,6.87
2018-07-28T07:23:02.966Z,6.93
2018-07-28T07:25:31.268Z,6.87
2018-07-28T07:27:59.553Z,7.30
2018-07-28T07:30:27.925Z,8.07
2018-07-28T07:32:56.171Z,7.17
2018-07-28T07:35:24.519Z,7.47
2018-07-28T07:37:52.550Z,7.73
2018-07-28T07:40:20.871Z,8.00
2018-07-28T07:42:48.962Z,7.83
2018-07-28T07:45:17.270Z,8.27
2018-07-28T07:47:45.603Z,8.03
2018-07-28T07:50:13.912Z,8.63
2018-07-28T07:52:42.203Z,8.13
2018-07-28T07:55:10.525Z,8.60
2018-07-28T07:57:38.570Z,7.93
2018-07-28T08:00:07.698Z,8.80
2018-07-28T08:02:36.022Z,8.30
2018-07-28T08:05:04.496Z,8.47
2018-07-28T08:07:32.875Z,8.00
2018-07-28T08:10:01.199Z,15.73
2018-07-28T08:12:29.558Z,9.50
2018-07-28T08:14:57.854Z,9.57
2018-07-28T08:17:25.925Z,8.83
2018-07-28T08:19:53.933Z,9.60
2018-07-28T08:22:22.270Z,9.30
2018-07-28T08:24:50.579Z,9.13
2018-07-28T08:27:18.879Z,9.20
2018-07-28T08:29:47.206Z,8.33
2018-07-28T08:32:15.242Z,8.50
2018-07-28T08:34:43.534Z,8.80
2018-07-28T08:37:11.595Z,8.90
2018-07-28T08:39:39.928Z,8.30
2018-07-28T08:42:08.256Z,8.17
2018-07-28T08:44:36.535Z,9.00
2018-07-28T08:47:04.847Z,8.13
2018-07-28T08:49:33.173Z,8.33
2018-07-28T08:52:01.482Z,8.23
2018-07-28T08:54:29.515Z,7.77
2018-07-28T08:56:57.828Z,7.63
2018-07-28T08:59:25.870Z,7.77
2018-07-28T09:01:54.205Z,8.00
2018-07-28T09:04:22.884Z,8.30
2018-07-28T09:06:51.243Z,7.60
2018-07-28T09:09:19.549Z,7.70
2018-07-28T09:11:47.869Z,7.40
2018-07-28T09:14:16.176Z,7.00
2018-07-28T09:16:44.215Z,7.07
2018-07-28T09:19:12.508Z,6.93
2018-07-28T09:21:40.622Z,6.80
2018-07-28T09:24:08.957Z,7.03
2018-07-28T09:26:37.019Z,6.70
2018-07-28T09:29:05.470Z,7.00
2018-07-28T09:31:33.798Z,6.30
2018-07-28T09:36:33.503Z,6.50
2018-07-28T09:39:01.840Z,6.10
2018-07-28T09:41:30.283Z,6.97
2018-07-28T09:43:58.583Z,6.70
2018-07-28T09:46:27.080Z,6.70
2018-07-28T09:48:55.282Z,7.03
2018-07-28T09:51:23.686Z,7.03
2018-07-28T09:53:51.967Z,7.07
2018-07-28T09:56:20.353Z,6.97
2018-07-28T09:58:48.835Z,7.27
2018-07-28T10:01:18.995Z,7.43
2018-07-28T10:03:47.923Z,7.67
2018-07-28T10:06:16.237Z,7.00
2018-07-28T10:08:44.534Z,6.67
2018-07-28T10:11:12.826Z,6.40
2018-07-28T10:13:41.280Z,7.50
2018-07-28T10:16:09.649Z,7.40
2018-07-28T10:18:37.960Z,7.50
2018-07-28T10:21:06.258Z,7.23
2018-07-28T10:23:34.684Z,7.20
2018-07-28T10:26:02.972Z,6.80
2018-07-28T10:28:31.306Z,6.97
2018-07-28T10:30:59.603Z,6.47
2018-07-28T10:33:27.906Z,6.73
2018-07-28T10:35:56.300Z,7.30
2018-07-28T10:38:24.603Z,6.40
2018-07-28T10:40:52.873Z,6.93
2018-07-28T10:43:21.238Z,6.43
2018-07-28T10:45:49.584Z,5.20
2018-07-28T10:48:17.904Z,4.57
2018-07-28T10:50:46.239Z,4.90
2018-07-28T10:53:14.624Z,4.63
2018-07-28T10:55:42.962Z,4.53
2018-07-28T10:58:11.344Z,4.57
2018-07-28T11:00:39.733Z,4.60
2018-07-28T11:03:08.206Z,4.63
2018-07-28T11:05:36.556Z,5.00
2018-07-28T11:08:04.927Z,5.07
2018-07-28T11:10:33.310Z,5.47
2018-07-28T11:13:01.714Z,4.77
2018-07-28T11:15:29.742Z,4.40
2018-07-28T11:17:58.104Z,4.73
2018-07-28T11:20:26.554Z,4.77
2018-07-28T11:22:54.919Z,4.40
2018-07-28T11:27:57.714Z,4.13
2018-07-28T11:30:26.040Z,4.57
2018-07-28T11:33:06.009Z,4.50
2018-07-28T11:35:45.532Z,3.90
2018-07-28T11:38:25.136Z,4.03
2018-07-28T11:41:04.786Z,4.08
2018-07-28T11:43:44.803Z,3.77
2018-07-28T11:46:12.832Z,4.05
2018-07-28T11:48:41.174Z,3.90
2018-07-28T11:51:09.835Z,3.80
2018-07-28T11:53:38.210Z,3.50
2018-07-28T11:56:06.551Z,3.92
2018-07-28T11:58:35.299Z,3.42
2018-07-28T12:01:03.838Z,3.42
2018-07-28T12:03:32.216Z,3.50
2018-07-28T12:06:00.535Z,3.45
2018-07-28T12:08:28.887Z,3.45
2018-07-28T12:10:57.224Z,3.37
2018-07-28T12:13:25.606Z,3.70
2018-07-28T12:15:53.942Z,3.27
2018-07-28T12:18:22.273Z,3.42
2018-07-28T12:20:50.734Z,3.42
2018-07-28T12:23:19.208Z,3.65
2018-07-28T12:25:47.723Z,3.37
2018-07-28T12:28:16.071Z,3.22
2018-07-28T12:30:44.445Z,3.70
2018-07-28T12:33:12.812Z,3.60
2018-07-28T12:35:41.126Z,3.62
2018-07-28T12:38:09.513Z,3.33
2018-07-28T12:40:37.904Z,3.40
2018-07-28T12:43:06.286Z,4.08
2018-07-28T12:45:34.643Z,4.00
2018-07-28T12:48:03.054Z,4.40
2018-07-28T12:50:31.429Z,3.85
2018-07-28T12:52:59.784Z,3.70
2018-07-28T12:55:28.288Z,3.80
2018-07-28T12:57:56.596Z,3.90
2018-07-28T13:00:24.979Z,3.80
2018-07-28T13:02:53.313Z,3.95
2018-07-28T13:05:21.744Z,5.00
2018-07-28T13:07:50.234Z,4.28
2018-07-28T13:10:18.595Z,4.30
2018-07-28T13:12:46.932Z,5.00
2018-07-28T13:15:15.359Z,4.15
2018-07-28T13:17:43.703Z,4.25
2018-07-28T13:20:12.131Z,4.20
2018-07-28T13:22:40.532Z,4.45
2018-07-28T13:25:08.920Z,4.45
2018-07-28T13:27:37.388Z,4.25
2018-07-28T13:30:07.174Z,4.27
2018-07-28T13:32:35.636Z,4.07
2018-07-28T13:35:04.173Z,4.30
2018-07-28T13:37:32.519Z,4.47
2018-07-28T13:40:00.893Z,4.27
2018-07-28T13:42:30.670Z,3.70
2018-07-28T13:44:59.713Z,4.10
2018-07-28T13:47:29.390Z,4.50
2018-07-28T13:49:57.871Z,4.17
2018-07-28T13:52:26.258Z,4.40
2018-07-28T13:54:55.578Z,4.73
2018-07-28T13:57:24.681Z,4.30
2018-07-28T13:59:53.048Z,4.80
2018-07-28T14:02:21.440Z,4.80
2018-07-28T14:04:49.760Z,5.10
2018-07-28T14:07:18.097Z,5.10
2018-07-28T14:09:46.478Z,6.10
2018-07-28T14:12:14.893Z,6.17
2018-07-28T14:14:43.324Z,5.80
2018-07-28T14:17:11.696Z,5.93
2018-07-28T14:19:39.997Z,6.27
2018-07-28T14:22:08.349Z,6.10
2018-07-28T14:24:36.740Z,6.30
2018-07-28T14:27:05.070Z,6.23
2018-07-28T14:29:33.415Z,6.17
2018-07-28T14:32:01.742Z,6.80
2018-07-28T14:34:30.099Z,6.30
2018-07-28T14:36:58.439Z,6.10
2018-07-28T14:39:26.766Z,6.20
2018-07-28T14:41:55.168Z,6.50
2018-07-28T14:44:23.485Z,5.50
2018-07-28T14:46:51.819Z,5.67
2018-07-28T14:49:20.186Z,5.80
2018-07-28T14:51:48.797Z,5.57
2018-07-28T14:54:17.136Z,6.00
2018-07-28T14:56:45.567Z,5.77
2018-07-28T14:59:14.031Z,5.77
2018-07-28T15:01:42.702Z,5.70
2018-07-28T15:04:11.040Z,5.87
2018-07-28T15:06:40.008Z,5.63
2018-07-28T15:09:09.687Z,5.90
2018-07-28T15:11:38.051Z,5.97
2018-07-28T15:14:06.417Z,6.00
2018-07-28T15:16:34.756Z,6.20
2018-07-28T15:19:03.087Z,5.80
2018-07-28T15:21:31.601Z,6.43
2018-07-28T15:24:00.250Z,6.23
2018-07-28T15:26:28.588Z,6.53
2018-07-28T15:28:56.886Z,5.73
2018-07-28T15:31:25.210Z,5.70
2018-07-28T15:33:53.756Z,6.10
2018-07-28T15:36:22.117Z,5.53
2018-07-28T15:38:50.448Z,6.12
2018-07-28T15:41:18.762Z,5.83
2018-07-28T15:43:47.068Z,5.47
2018-07-28T15:46:15.436Z,5.30
2018-07-28T15:48:43.819Z,5.70
2018-07-28T15:51:12.111Z,5.55
2018-07-28T15:53:40.402Z,5.30
2018-07-28T15:56:08.728Z,5.70
2018-07-28T15:58:37.071Z,6.30
2018-07-28T16:01:05.405Z,5.62
2018-07-28T16:03:33.828Z,6.10
2018-07-28T16:06:02.139Z,5.90
2018-07-28T16:08:30.503Z,5.80
2018-07-28T16:10:58.939Z,5.42
2018-07-28T16:13:27.365Z,5.33
2018-07-28T16:15:55.694Z,4.62
2018-07-28T16:18:24.050Z,5.30
2018-07-28T16:20:52.383Z,4.65
2018-07-28T16:23:20.717Z,5.08
2018-07-28T16:25:49.040Z,4.87
2018-07-28T16:28:17.383Z,4.80
2018-07-28T16:30:45.739Z,4.50
2018-07-28T16:33:14.067Z,4.53
2018-07-28T16:35:42.354Z,4.28
2018-07-28T16:38:10.766Z,3.62
2018-07-28T16:40:39.102Z,3.58
2018-07-28T16:43:07.477Z,3.75
2018-07-28T16:45:35.851Z,3.77
2018-07-28T16:48:04.179Z,3.42
2018-07-28T16:50:32.888Z,4.50
2018-07-28T16:53:01.264Z,3.67
2018-07-28T16:55:29.645Z,3.52
2018-07-28T16:57:58.031Z,3.40
2018-07-28T17:00:26.398Z,3.52
2018-07-28T17:02:54.735Z,3.60
2018-07-28T17:05:23.063Z,3.33
2018-07-28T17:07:51.768Z,3.30
2018-07-28T17:10:20.108Z,3.65
2018-07-28T17:12:48.475Z,3.25
2018-07-28T17:15:16.759Z,3.52
2018-07-28T17:17:45.072Z,3.60
2018-07-28T17:20:13.397Z,3.58
2018-07-28T17:22:41.822Z,3.58
2018-07-28T17:25:10.172Z,3.37
2018-07-28T17:27:38.565Z,3.42
2018-07-28T17:30:06.894Z,3.02
2018-07-28T17:32:34.951Z,4.05
2018-07-28T17:35:03.267Z,3.57
2018-07-28T17:37:31.611Z,3.83
2018-07-28T17:39:59.678Z,3.22
2018-07-28T17:42:28.012Z,3.47
2018-07-28T17:44:56.383Z,3.70
2018-07-28T17:47:24.782Z,3.00
2018-07-28T17:49:53.119Z,3.70
2018-07-28T17:52:21.451Z,3.00
2018-07-28T17:54:49.752Z,3.23
2018-07-28T17:57:18.237Z,3.37
2018-07-28T17:59:46.545Z,3.00
2018-07-28T18:02:14.903Z,3.35
2018-07-28T18:04:43.251Z,3.00
2018-07-28T18:07:11.971Z,3.37
2018-07-28T18:09:40.348Z,3.10
2018-07-28T18:12:08.682Z,2.80
2018-07-28T18:14:37.059Z,3.03
2018-07-28T18:17:05.659Z,2.70
2018-07-28T18:19:34.142Z,3.03
2018-07-28T18:22:02.461Z,4.13
2018-07-28T18:24:30.827Z,3.57
2018-07-28T18:26:59.194Z,3.03
2018-07-28T18:29:27.759Z,3.50
2018-07-28T18:31:56.099Z,3.00
2018-07-28T18:34:24.513Z,3.07
2018-07-28T18:36:52.813Z,3.70
2018-07-28T18:39:21.209Z,3.13
2018-07-28T18:41:49.663Z,3.60
2018-07-28T18:44:17.996Z,2.97
2018-07-28T18:46:46.312Z,3.20
2018-07-28T18:49:14.350Z,3.17
2018-07-28T18:51:42.678Z,3.03
2018-07-28T18:54:11.088Z,2.80
2018-07-28T18:56:39.399Z,2.90
2018-07-28T18:59:07.699Z,2.63
2018-07-28T19:01:36.056Z,3.00
2018-07-28T19:04:04.428Z,2.80
2018-07-28T19:06:32.736Z,2.97
2018-07-28T19:09:06.495Z,2.70
2018-07-28T19:11:34.819Z,3.10
2018-07-28T19:14:08.411Z,3.20
2018-07-28T19:16:36.746Z,3.00
2018-07-28T19:19:10.458Z,2.73
2018-07-28T19:21:39.107Z,2.83
2018-07-28T19:24:07.527Z,3.00
2018-07-28T19:26:35.907Z,2.90
2018-07-28T19:29:09.867Z,3.07
2018-07-28T19:31:38.257Z,3.10
2018-07-28T19:34:06.655Z,3.27
2018-07-28T19:36:40.254Z,3.80
2018-07-28T19:39:09.692Z,3.47
2018-07-28T19:41:43.536Z,3.30
2018-07-28T19:44:12.490Z,3.20
2018-07-28T19:46:40.851Z,3.13
2018-07-28T19:49:09.737Z,3.40
2018-07-28T19:51:38.499Z,3.60
2018-07-28T19:54:06.891Z,3.40
2018-07-28T19:56:35.362Z,2.90
2018-07-28T19:59:04.061Z,3.20
2018-07-28T20:01:32.409Z,3.40
2018-07-28T20:04:00.832Z,3.20
2018-07-28T20:06:29.279Z,3.20
2018-07-28T20:08:58.682Z,3.10
2018-07-28T20:11:26.991Z,3.37
2018-07-28T20:13:55.419Z,3.50
2018-07-28T20:16:23.734Z,3.17
2018-07-28T20:18:52.077Z,3.10
2018-07-28T20:21:20.389Z,3.50
2018-07-28T20:23:48.732Z,3.77
2018-07-28T20:26:17.014Z,3.67
2018-07-28T20:28:45.325Z,3.23
2018-07-28T20:31:13.666Z,3.50
2018-07-28T20:33:41.936Z,3.20
2018-07-28T20:36:10.252Z,3.10
2018-07-28T20:38:38.547Z,3.00
2018-07-28T20:41:06.866Z,2.90
2018-07-28T20:43:35.179Z,3.40
2018-07-28T20:46:03.514Z,3.10
2018-07-28T20:48:31.831Z,2.80
2018-07-28T20:51:00.172Z,3.00
2018-07-28T20:53:28.440Z,2.70
2018-07-28T20:55:56.747Z,2.70
2018-07-28T20:58:25.101Z,2.77
2018-07-28T21:00:53.657Z,2.60
2018-07-28T21:03:22.051Z,2.80
2018-07-28T21:05:50.400Z,2.80
2018-07-28T21:08:18.831Z,2.80
2018-07-28T21:10:47.187Z,2.73
2018-07-28T21:13:15.196Z,2.80
2018-07-28T21:15:43.607Z,2.80
2018-07-28T21:18:11.925Z,2.50
2018-07-28T21:20:40.281Z,2.57
2018-07-28T21:23:08.566Z,2.53
2018-07-28T21:25:36.902Z,2.80
2018-07-28T21:28:05.695Z,2.30
2018-07-28T21:30:34.042Z,2.60
2018-07-28T21:33:02.395Z,2.67
2018-07-28T21:35:30.685Z,2.40
2018-07-28T21:37:59.076Z,2.40
2018-07-28T21:40:27.409Z,2.50
2018-07-28T21:42:55.450Z,2.10
2018-07-28T21:45:23.796Z,2.30
2018-07-28T21:47:52.126Z,2.30
2018-07-28T21:50:20.478Z,2.57
2018-07-28T21:52:48.883Z,2.40
2018-07-28T21:55:17.242Z,21.83
2018-07-28T21:57:45.627Z,21.93
2018-07-28T22:00:13.952Z,4.20
2018-07-28T22:02:42.273Z,3.20
2018-07-28T22:05:10.333Z,2.50
2018-07-28T22:07:38.620Z,2.33
2018-07-28T22:10:07.000Z,2.50
2018-07-28T22:12:35.452Z,2.80
2018-07-28T22:15:03.819Z,2.30
2018-07-28T22:17:32.149Z,2.37
2018-07-28T22:20:00.475Z,2.30
2018-07-28T22:22:28.494Z,2.20
2018-07-28T22:24:56.902Z,2.10
2018-07-28T22:27:25.190Z,1.97
2018-07-28T22:29:53.520Z,2.33
2018-07-28T22:32:21.803Z,2.37
2018-07-28T22:34:50.115Z,2.30
2018-07-28T22:37:18.484Z,2.00
2018-07-28T22:39:46.798Z,2.53
2018-07-28T22:42:15.123Z,2.57
2018-07-28T22:44:43.469Z,2.20
2018-07-28T22:47:11.808Z,2.00
2018-07-28T22:49:40.099Z,2.70
2018-07-28T22:52:08.414Z,2.27
2018-07-28T22:54:36.763Z,2.47
2018-07-28T22:57:05.093Z,2.63
2018-07-28T22:59:33.395Z,2.13
2018-07-28T23:02:01.730Z,2.10
2018-07-28T23:04:30.053Z,3.10
2018-07-28T23:06:58.388Z,2.80
2018-07-28T23:09:26.699Z,2.73
2018-07-28T23:11:55.207Z,2.40
2018-07-28T23:14:23.523Z,2.73
2018-07-28T23:16:51.837Z,2.30
2018-07-28T23:19:20.140Z,2.30
2018-07-28T23:21:48.441Z,2.43
2018-07-28T23:24:16.748Z,2.27
2018-07-28T23:26:45.047Z,2.70
2018-07-28T23:29:13.320Z,2.40
2018-07-28T23:31:41.619Z,2.50
2018-07-28T23:34:09.910Z,2.40
2018-07-28T23:36:38.227Z,2.60
2018-07-28T23:39:07.884Z,2.63
2018-07-28T23:41:36.358Z,2.47
2018-07-28T23:44:04.715Z,2.90
2018-07-28T23:46:33.023Z,3.10
2018-07-28T23:49:01.346Z,2.80
2018-07-28T23:51:29.692Z,2.50
2018-07-28T23:53:57.984Z,2.93
2018-07-28T23:56:26.327Z,3.10
2018-07-28T23:58:54.639Z,2.80
